sensor_id;sensor_type;location;lat;lon;timestamp;pressure;altitude;pressure_sealevel;temperature;humidity
25722;BME280;13578;53.450;15.496;2024-03-25T00:00:03;97923.06;;;3.69;100.00
25722;BME280;13578;53.450;15.496;2024-03-25T00:03:04;97920.34;;;3.69;100.00
25722;BME280;13578;53.450;15.496;2024-03-25T00:06:05;97916.22;;;3.85;100.00
25722;BME280;13578;53.450;15.496;2024-03-25T00:09:07;97923.34;;;3.86;100.00
25722;BME280;13578;53.450;15.496;2024-03-25T00:12:14;97924.78;;;3.70;100.00
25722;BME280;13578;53.450;15.496;2024-03-25T00:15:14;97923.91;;;3.70;100.00
25722;BME280;13578;53.450;15.496;2024-03-25T00:18:15;97923.34;;;3.76;100.00
25722;BME280;13578;53.450;15.496;2024-03-25T00:21:16;97924.22;;;3.76;100.00
25722;BME280;13578;53.450;15.496;2024-03-25T00:24:17;97924.34;;;3.85;100.00
25722;BME280;13578;53.450;15.496;2024-03-25T00:27:17;97928.50;;;3.79;100.00
25722;BME280;13578;53.450;15.496;2024-03-25T00:30:19;97924.06;;;3.88;100.00
25722;BME280;13578;53.450;15.496;2024-03-25T00:33:19;97931.63;;;3.84;100.00
25722;BME280;13578;53.450;15.496;2024-03-25T00:36:20;97930.06;;;3.81;100.00
25722;BME280;13578;53.450;15.496;2024-03-25T00:39:21;97929.06;;;3.92;100.00
25722;BME280;13578;53.450;15.496;2024-03-25T00:42:24;97925.94;;;3.87;100.00
25722;BME280;13578;53.450;15.496;2024-03-25T00:45:25;97926.78;;;3.97;100.00
25722;BME280;13578;53.450;15.496;2024-03-25T00:48:30;97931.78;;;3.92;100.00
25722;BME280;13578;53.450;15.496;2024-03-25T00:51:31;97930.47;;;3.87;100.00
25722;BME280;13578;53.450;15.496;2024-03-25T00:54:32;97924.22;;;3.86;100.00
25722;BME280;13578;53.450;15.496;2024-03-25T00:57:32;97930.94;;;3.92;100.00
25722;BME280;13578;53.450;15.496;2024-03-25T01:00:33;97929.91;;;3.93;100.00
25722;BME280;13578;53.450;15.496;2024-03-25T01:03:34;97926.34;;;3.92;100.00
25722;BME280;13578;53.450;15.496;2024-03-25T01:06:34;97924.47;;;3.93;100.00
25722;BME280;13578;53.450;15.496;2024-03-25T01:09:35;97924.06;;;3.97;100.00
25722;BME280;13578;53.450;15.496;2024-03-25T01:12:36;97918.47;;;3.89;100.00
25722;BME280;13578;53.450;15.496;2024-03-25T01:15:36;97917.38;;;3.92;100.00
25722;BME280;13578;53.450;15.496;2024-03-25T01:18:37;97925.34;;;3.93;100.00
25722;BME280;13578;53.450;15.496;2024-03-25T01:21:37;97918.09;;;4.04;100.00
25722;BME280;13578;53.450;15.496;2024-03-25T01:24:39;97927.66;;;3.98;100.00
25722;BME280;13578;53.450;15.496;2024-03-25T01:27:40;97926.78;;;3.97;100.00
25722;BME280;13578;53.450;15.496;2024-03-25T01:30:41;97929.63;;;3.96;100.00
25722;BME280;13578;53.450;15.496;2024-03-25T01:33:41;97927.06;;;3.94;100.00
25722;BME280;13578;53.450;15.496;2024-03-25T01:36:42;97925.09;;;3.96;100.00
25722;BME280;13578;53.450;15.496;2024-03-25T01:39:43;97936.94;;;4.05;100.00
25722;BME280;13578;53.450;15.496;2024-03-25T01:42:58;97937.50;;;4.19;100.00
25722;BME280;13578;53.450;15.496;2024-03-25T01:45:59;97941.06;;;4.00;100.00
25722;BME280;13578;53.450;15.496;2024-03-25T01:49:00;97953.50;;;4.02;100.00
25722;BME280;13578;53.450;15.496;2024-03-25T01:52:00;97943.94;;;3.98;100.00
25722;BME280;13578;53.450;15.496;2024-03-25T01:55:01;97937.78;;;3.96;100.00
25722;BME280;13578;53.450;15.496;2024-03-25T01:58:04;97950.78;;;4.02;100.00
25722;BME280;13578;53.450;15.496;2024-03-25T02:01:05;97947.63;;;3.97;100.00
25722;BME280;13578;53.450;15.496;2024-03-25T02:04:06;97947.75;;;3.86;100.00
25722;BME280;13578;53.450;15.496;2024-03-25T02:07:08;97936.22;;;3.93;100.00
25722;BME280;13578;53.450;15.496;2024-03-25T02:10:11;97936.63;;;3.98;100.00
25722;BME280;13578;53.450;15.496;2024-03-25T02:13:15;97946.81;;;4.06;100.00
25722;BME280;13578;53.450;15.496;2024-03-25T02:16:16;97942.94;;;3.99;100.00
25722;BME280;13578;53.450;15.496;2024-03-25T02:19:17;97946.91;;;3.95;100.00
25722;BME280;13578;53.450;15.496;2024-03-25T02:22:18;97941.22;;;3.98;100.00
25722;BME280;13578;53.450;15.496;2024-03-25T02:25:20;97936.38;;;3.92;100.00
25722;BME280;13578;53.450;15.496;2024-03-25T02:28:22;97933.91;;;3.98;100.00
25722;BME280;13578;53.450;15.496;2024-03-25T02:31:23;97933.91;;;3.98;100.00
25722;BME280;13578;53.450;15.496;2024-03-25T02:34:23;97938.94;;;3.93;100.00
25722;BME280;13578;53.450;15.496;2024-03-25T02:37:25;97925.94;;;3.97;100.00
25722;BME280;13578;53.450;15.496;2024-03-25T02:40:26;97938.78;;;4.05;100.00
25722;BME280;13578;53.450;15.496;2024-03-25T02:43:27;97940.22;;;4.09;100.00
25722;BME280;13578;53.450;15.496;2024-03-25T02:46:28;97951.22;;;4.17;100.00
25722;BME280;13578;53.450;15.496;2024-03-25T02:49:29;97942.09;;;4.18;100.00
25722;BME280;13578;53.450;15.496;2024-03-25T02:52:30;97942.09;;;4.18;100.00
25722;BME280;13578;53.450;15.496;2024-03-25T02:55:31;97945.94;;;4.25;100.00
25722;BME280;13578;53.450;15.496;2024-03-25T02:58:31;97956.25;;;4.22;100.00
25722;BME280;13578;53.450;15.496;2024-03-25T03:01:32;97962.50;;;4.22;100.00
25722;BME280;13578;53.450;15.496;2024-03-25T03:04:33;97956.34;;;4.30;100.00
25722;BME280;13578;53.450;15.496;2024-03-25T03:07:33;97956.34;;;4.30;100.00
25722;BME280;13578;53.450;15.496;2024-03-25T03:10:34;97961.34;;;4.35;100.00
25722;BME280;13578;53.450;15.496;2024-03-25T03:13:35;97970.81;;;4.31;100.00
25722;BME280;13578;53.450;15.496;2024-03-25T03:16:35;97971.66;;;4.31;100.00
25722;BME280;13578;53.450;15.496;2024-03-25T03:19:36;97971.66;;;4.31;100.00
25722;BME280;13578;53.450;15.496;2024-03-25T03:22:36;97980.50;;;4.33;100.00
25722;BME280;13578;53.450;15.496;2024-03-25T03:25:37;97980.50;;;4.33;100.00
25722;BME280;13578;53.450;15.496;2024-03-25T03:28:38;97980.50;;;4.33;100.00
25722;BME280;13578;53.450;15.496;2024-03-25T03:31:38;97986.38;;;4.38;100.00
25722;BME280;13578;53.450;15.496;2024-03-25T03:34:39;97990.06;;;4.37;100.00
25722;BME280;13578;53.450;15.496;2024-03-25T03:37:40;97990.06;;;4.37;100.00
25722;BME280;13578;53.450;15.496;2024-03-25T03:40:40;97990.06;;;4.37;100.00
25722;BME280;13578;53.450;15.496;2024-03-25T03:43:41;97990.06;;;4.37;100.00
25722;BME280;13578;53.450;15.496;2024-03-25T03:46:42;98011.53;;;4.50;100.00
25722;BME280;13578;53.450;15.496;2024-03-25T03:49:42;98011.53;;;4.50;100.00
25722;BME280;13578;53.450;15.496;2024-03-25T03:52:43;98015.09;;;4.60;100.00
25722;BME280;13578;53.450;15.496;2024-03-25T03:55:56;98015.09;;;4.60;100.00
25722;BME280;13578;53.450;15.496;2024-03-25T03:58:57;98015.09;;;4.60;100.00
25722;BME280;13578;53.450;15.496;2024-03-25T04:01:58;98037.69;;;4.81;100.00
25722;BME280;13578;53.450;15.496;2024-03-25T04:04:59;98041.13;;;4.73;100.00
25722;BME280;13578;53.450;15.496;2024-03-25T04:08:00;98032.41;;;4.59;100.00
25722;BME280;13578;53.450;15.496;2024-03-25T04:11:02;98032.41;;;4.59;100.00
25722;BME280;13578;53.450;15.496;2024-03-25T04:14:03;98032.41;;;4.59;100.00
25722;BME280;13578;53.450;15.496;2024-03-25T04:17:03;98032.41;;;4.59;100.00
25722;BME280;13578;53.450;15.496;2024-03-25T04:20:05;98046.53;;;4.83;100.00
25722;BME280;13578;53.450;15.496;2024-03-25T04:23:10;98043.56;;;4.76;100.00
25722;BME280;13578;53.450;15.496;2024-03-25T04:26:11;98043.56;;;4.76;100.00
25722;BME280;13578;53.450;15.496;2024-03-25T04:29:12;98043.56;;;4.76;100.00
25722;BME280;13578;53.450;15.496;2024-03-25T04:32:13;98043.56;;;4.76;100.00
25722;BME280;13578;53.450;15.496;2024-03-25T04:35:14;98060.56;;;4.68;100.00
25722;BME280;13578;53.450;15.496;2024-03-25T04:38:17;98060.56;;;4.68;100.00
25722;BME280;13578;53.450;15.496;2024-03-25T04:41:18;98060.56;;;4.68;100.00
25722;BME280;13578;53.450;15.496;2024-03-25T04:44:19;98065.16;;;4.68;100.00
25722;BME280;13578;53.450;15.496;2024-03-25T04:47:21;98069.72;;;4.67;100.00
25722;BME280;13578;53.450;15.496;2024-03-25T04:50:22;98072.88;;;4.63;100.00
25722;BME280;13578;53.450;15.496;2024-03-25T04:53:23;98084.88;;;4.60;100.00
25722;BME280;13578;53.450;15.496;2024-03-25T04:56:24;98074.88;;;4.60;100.00
25722;BME280;13578;53.450;15.496;2024-03-25T04:59:24;98082.59;;;4.65;100.00
25722;BME280;13578;53.450;15.496;2024-03-25T05:02:25;98083.88;;;4.61;100.00
25722;BME280;13578;53.450;15.496;2024-03-25T05:05:26;98080.31;;;4.60;100.00
25722;BME280;13578;53.450;15.496;2024-03-25T05:08:26;98082.59;;;4.65;100.00
25722;BME280;13578;53.450;15.496;2024-03-25T05:11:27;98093.59;;;4.64;100.00
25722;BME280;13578;53.450;15.496;2024-03-25T05:14:28;98091.75;;;4.64;100.00
25722;BME280;13578;53.450;15.496;2024-03-25T05:17:28;98100.75;;;4.65;100.00
25722;BME280;13578;53.450;15.496;2024-03-25T05:20:29;98104.63;;;4.62;100.00
25722;BME280;13578;53.450;15.496;2024-03-25T05:23:30;98105.63;;;4.61;100.00
25722;BME280;13578;53.450;15.496;2024-03-25T05:26:30;98108.75;;;4.56;100.00
25722;BME280;13578;53.450;15.496;2024-03-25T05:29:31;98108.47;;;4.59;100.00
25722;BME280;13578;53.450;15.496;2024-03-25T05:32:32;98100.06;;;4.63;100.00
25722;BME280;13578;53.450;15.496;2024-03-25T05:35:32;98101.75;;;4.64;100.00
25722;BME280;13578;53.450;15.496;2024-03-25T05:38:36;98106.91;;;4.67;100.00
25722;BME280;13578;53.450;15.496;2024-03-25T05:41:37;98104.78;;;4.60;100.00
25722;BME280;13578;53.450;15.496;2024-03-25T05:44:37;98107.91;;;4.66;100.00
25722;BME280;13578;53.450;15.496;2024-03-25T05:47:38;98116.38;;;4.72;100.00
25722;BME280;13578;53.450;15.496;2024-03-25T05:50:39;98122.78;;;4.61;100.00
25722;BME280;13578;53.450;15.496;2024-03-25T05:53:39;98123.78;;;4.60;100.00
25722;BME280;13578;53.450;15.496;2024-03-25T05:56:40;98130.63;;;4.65;100.00
25722;BME280;13578;53.450;15.496;2024-03-25T05:59:40;98140.66;;;4.64;100.00
25722;BME280;13578;53.450;15.496;2024-03-25T06:02:41;98143.81;;;4.59;100.00
25722;BME280;13578;53.450;15.496;2024-03-25T06:05:42;98152.63;;;4.52;100.00
25722;BME280;13578;53.450;15.496;2024-03-25T06:08:43;98146.66;;;4.58;100.00
25722;BME280;13578;53.450;15.496;2024-03-25T06:11:44;98145.38;;;4.62;100.00
25722;BME280;13578;53.450;15.496;2024-03-25T06:14:45;98152.38;;;4.65;100.00
25722;BME280;13578;53.450;15.496;2024-03-25T06:17:45;98153.09;;;4.67;100.00
25722;BME280;13578;53.450;15.496;2024-03-25T06:20:46;98163.81;;;4.68;100.00
25722;BME280;13578;53.450;15.496;2024-03-25T06:23:47;98173.28;;;4.64;100.00
25722;BME280;13578;53.450;15.496;2024-03-25T06:26:47;98170.41;;;4.66;100.00
25722;BME280;13578;53.450;15.496;2024-03-25T06:29:48;98169.81;;;4.62;100.00
25722;BME280;13578;53.450;15.496;2024-03-25T06:32:49;98174.41;;;4.61;100.00
25722;BME280;13578;53.450;15.496;2024-03-25T06:36:08;98177.00;;;4.73;100.00
25722;BME280;13578;53.450;15.496;2024-03-25T06:39:09;98186.72;;;4.75;100.00
25722;BME280;13578;53.450;15.496;2024-03-25T06:42:10;98193.88;;;4.76;100.00
25722;BME280;13578;53.450;15.496;2024-03-25T06:45:10;98186.31;;;4.80;100.00
25722;BME280;13578;53.450;15.496;2024-03-25T06:48:11;98197.06;;;4.91;100.00
25722;BME280;13578;53.450;15.496;2024-03-25T06:51:12;98195.91;;;4.84;100.00
25722;BME280;13578;53.450;15.496;2024-03-25T06:54:12;98197.59;;;4.85;100.00
25722;BME280;13578;53.450;15.496;2024-03-25T06:57:13;98205.34;;;5.00;100.00
25722;BME280;13578;53.450;15.496;2024-03-25T07:00:14;98220.66;;;5.01;100.00
25722;BME280;13578;53.450;15.496;2024-03-25T07:03:19;98217.66;;;5.04;100.00
25722;BME280;13578;53.450;15.496;2024-03-25T07:06:20;98224.25;;;5.11;100.00
25722;BME280;13578;53.450;15.496;2024-03-25T07:09:20;98225.69;;;5.15;100.00
25722;BME280;13578;53.450;15.496;2024-03-25T07:12:21;98237.16;;;5.29;100.00
25722;BME280;13578;53.450;15.496;2024-03-25T07:15:22;98230.84;;;5.38;100.00
25722;BME280;13578;53.450;15.496;2024-03-25T07:18:22;98238.00;;;5.39;100.00
25722;BME280;13578;53.450;15.496;2024-03-25T07:21:23;98254.63;;;5.46;100.00
25722;BME280;13578;53.450;15.496;2024-03-25T07:24:24;98269.50;;;5.41;100.00
25722;BME280;13578;53.450;15.496;2024-03-25T07:27:24;98284.53;;;5.36;100.00
25722;BME280;13578;53.450;15.496;2024-03-25T07:30:25;98293.56;;;5.27;100.00
25722;BME280;13578;53.450;15.496;2024-03-25T07:33:28;98297.69;;;5.31;100.00
25722;BME280;13578;53.450;15.496;2024-03-25T07:36:29;98302.72;;;5.35;100.00
25722;BME280;13578;53.450;15.496;2024-03-25T07:39:34;98305.44;;;5.45;100.00
25722;BME280;13578;53.450;15.496;2024-03-25T07:42:34;98315.91;;;5.40;100.00
25722;BME280;13578;53.450;15.496;2024-03-25T07:45:35;98319.91;;;5.36;100.00
25722;BME280;13578;53.450;15.496;2024-03-25T07:48:35;98318.03;;;5.46;100.00
25722;BME280;13578;53.450;15.496;2024-03-25T07:51:36;98325.38;;;5.46;100.00
25722;BME280;13578;53.450;15.496;2024-03-25T07:54:39;98337.81;;;5.48;100.00
25722;BME280;13578;53.450;15.496;2024-03-25T07:57:40;98336.53;;;5.52;100.00
25722;BME280;13578;53.450;15.496;2024-03-25T08:00:40;98339.97;;;5.54;100.00
25722;BME280;13578;53.450;15.496;2024-03-25T08:03:41;98334.25;;;5.57;100.00
25722;BME280;13578;53.450;15.496;2024-03-25T08:06:42;98350.13;;;5.52;100.00
25722;BME280;13578;53.450;15.496;2024-03-25T08:09:43;98340.13;;;5.53;100.00
25722;BME280;13578;53.450;15.496;2024-03-25T08:12:43;98351.72;;;5.65;100.00
25722;BME280;13578;53.450;15.496;2024-03-25T08:15:44;98359.75;;;5.66;100.00
25722;BME280;13578;53.450;15.496;2024-03-25T08:18:44;98365.75;;;5.70;100.00
25722;BME280;13578;53.450;15.496;2024-03-25T08:21:45;98380.78;;;5.54;100.00
25722;BME280;13578;53.450;15.496;2024-03-25T08:24:46;98380.38;;;5.59;100.00
25722;BME280;13578;53.450;15.496;2024-03-25T08:27:46;98378.38;;;5.61;100.00
25722;BME280;13578;53.450;15.496;2024-03-25T08:30:47;98382.09;;;5.60;100.00
25722;BME280;13578;53.450;15.496;2024-03-25T08:33:47;98389.22;;;5.51;100.00
25722;BME280;13578;53.450;15.496;2024-03-25T08:36:48;98387.38;;;5.62;100.00
25722;BME280;13578;53.450;15.496;2024-03-25T08:39:48;98401.72;;;5.73;100.00
25722;BME280;13578;53.450;15.496;2024-03-25T08:42:49;98397.28;;;5.72;100.00
25722;BME280;13578;53.450;15.496;2024-03-25T08:45:50;98400.88;;;5.83;100.00
25722;BME280;13578;53.450;15.496;2024-03-25T08:48:50;98407.03;;;5.85;100.00
25722;BME280;13578;53.450;15.496;2024-03-25T08:51:51;98415.34;;;5.83;100.00
25722;BME280;13578;53.450;15.496;2024-03-25T08:54:51;98426.81;;;5.87;100.00
25722;BME280;13578;53.450;15.496;2024-03-25T08:57:52;98437.97;;;5.84;100.00
25722;BME280;13578;53.450;15.496;2024-03-25T09:00:53;98436.81;;;5.67;100.00
25722;BME280;13578;53.450;15.496;2024-03-25T09:03:53;98443.13;;;5.77;100.00
25722;BME280;13578;53.450;15.496;2024-03-25T09:06:54;98445.13;;;5.75;100.00
25722;BME280;13578;53.450;15.496;2024-03-25T09:09:54;98446.00;;;5.76;100.00
25722;BME280;13578;53.450;15.496;2024-03-25T09:13:13;98445.88;;;5.77;100.00
25722;BME280;13578;53.450;15.496;2024-03-25T09:16:14;98448.84;;;5.84;100.00
25722;BME280;13578;53.450;15.496;2024-03-25T09:19:15;98445.75;;;5.98;100.00
25722;BME280;13578;53.450;15.496;2024-03-25T09:22:15;98453.38;;;6.14;100.00
25722;BME280;13578;53.450;15.496;2024-03-25T09:25:16;98461.53;;;6.24;100.00
25722;BME280;13578;53.450;15.496;2024-03-25T09:28:17;98456.22;;;6.42;100.00
25722;BME280;13578;53.450;15.496;2024-03-25T09:31:18;98462.06;;;6.77;100.00
25722;BME280;13578;53.450;15.496;2024-03-25T09:34:18;98484.91;;;6.56;100.00
25722;BME280;13578;53.450;15.496;2024-03-25T09:37:19;98494.94;;;6.56;100.00
25722;BME280;13578;53.450;15.496;2024-03-25T09:40:20;98489.91;;;6.80;100.00
25722;BME280;13578;53.450;15.496;2024-03-25T09:43:43;98503.34;;;6.92;100.00
25722;BME280;13578;53.450;15.496;2024-03-25T09:46:43;98506.53;;;6.97;100.00
25722;BME280;13578;53.450;15.496;2024-03-25T09:49:45;98501.16;;;7.05;100.00
25722;BME280;13578;53.450;15.496;2024-03-25T09:52:50;98517.16;;;6.90;100.00
25722;BME280;13578;53.450;15.496;2024-03-25T09:55:50;98516.88;;;6.83;100.00
25722;BME280;13578;53.450;15.496;2024-03-25T09:58:51;98516.88;;;6.83;100.00
25722;BME280;13578;53.450;15.496;2024-03-25T10:01:54;98514.72;;;6.77;100.00
25722;BME280;13578;53.450;15.496;2024-03-25T10:04:55;98524.03;;;6.94;100.00
25722;BME280;13578;53.450;15.496;2024-03-25T10:07:55;98529.47;;;7.04;100.00
25722;BME280;13578;53.450;15.496;2024-03-25T10:10:56;98527.09;;;7.29;100.00
25722;BME280;13578;53.450;15.496;2024-03-25T10:13:58;98537.53;;;7.43;100.00
25722;BME280;13578;53.450;15.496;2024-03-25T10:16:58;98530.91;;;7.84;100.00
25722;BME280;13578;53.450;15.496;2024-03-25T10:19:59;98540.00;;;7.74;100.00
25722;BME280;13578;53.450;15.496;2024-03-25T10:23:00;98540.66;;;7.58;100.00
25722;BME280;13578;53.450;15.496;2024-03-25T10:26:00;98540.09;;;7.55;100.00
25722;BME280;13578;53.450;15.496;2024-03-25T10:29:02;98543.75;;;7.73;100.00
25722;BME280;13578;53.450;15.496;2024-03-25T10:32:04;98543.50;;;7.57;100.00
25722;BME280;13578;53.450;15.496;2024-03-25T10:35:05;98549.13;;;7.55;100.00
25722;BME280;13578;53.450;15.496;2024-03-25T10:38:09;98547.16;;;7.47;100.00
25722;BME280;13578;53.450;15.496;2024-03-25T10:41:13;98551.41;;;7.60;100.00
25722;BME280;13578;53.450;15.496;2024-03-25T10:44:16;98541.66;;;7.57;100.00
25722;BME280;13578;53.450;15.496;2024-03-25T10:47:20;98550.22;;;7.72;100.00
25722;BME280;13578;53.450;15.496;2024-03-25T10:50:26;98549.16;;;7.83;100.00
25722;BME280;13578;53.450;15.496;2024-03-25T10:53:29;98551.31;;;7.79;100.00
25722;BME280;13578;53.450;15.496;2024-03-25T10:56:30;98546.97;;;7.59;100.00
25722;BME280;13578;53.450;15.496;2024-03-25T10:59:31;98550.66;;;7.68;100.00
25722;BME280;13578;53.450;15.496;2024-03-25T11:02:32;98548.47;;;7.81;100.00
25722;BME280;13578;53.450;15.496;2024-03-25T11:05:33;98548.88;;;7.86;100.00
25722;BME280;13578;53.450;15.496;2024-03-25T11:08:34;98556.38;;;8.02;100.00
25722;BME280;13578;53.450;15.496;2024-03-25T11:11:34;98559.41;;;8.27;100.00
25722;BME280;13578;53.450;15.496;2024-03-25T11:14:35;98561.78;;;8.40;100.00
25722;BME280;13578;53.450;15.496;2024-03-25T11:17:36;98549.66;;;8.42;100.00
25722;BME280;13578;53.450;15.496;2024-03-25T11:20:37;98554.75;;;8.09;100.00
25722;BME280;13578;53.450;15.496;2024-03-25T11:23:41;98547.72;;;8.07;100.00
25722;BME280;13578;53.450;15.496;2024-03-25T11:26:42;98544.63;;;8.02;100.00
25722;BME280;13578;53.450;15.496;2024-03-25T11:29:43;98556.28;;;8.22;100.00
25722;BME280;13578;53.450;15.496;2024-03-25T11:32:54;98561.56;;;8.69;100.00
25722;BME280;13578;53.450;15.496;2024-03-25T11:35:55;98551.16;;;8.91;100.00
25722;BME280;13578;53.450;15.496;2024-03-25T11:42:01;98548.75;;;8.88;100.00
25722;BME280;13578;53.450;15.496;2024-03-25T11:45:03;98539.78;;;8.78;100.00
25722;BME280;13578;53.450;15.496;2024-03-25T11:48:04;98549.25;;;8.47;100.00
25722;BME280;13578;53.450;15.496;2024-03-25T11:51:05;98549.50;;;8.26;100.00
25722;BME280;13578;53.450;15.496;2024-03-25T11:54:06;98547.06;;;8.23;100.00
25722;BME280;13578;53.450;15.496;2024-03-25T11:57:07;98563.56;;;8.03;100.00
25722;BME280;13578;53.450;15.496;2024-03-25T12:00:09;98563.94;;;8.18;100.00
25722;BME280;13578;53.450;15.496;2024-03-25T12:03:14;98564.06;;;8.17;100.00
25722;BME280;13578;53.450;15.496;2024-03-25T12:06:15;98570.47;;;8.07;100.00
25722;BME280;13578;53.450;15.496;2024-03-25T12:09:16;98574.72;;;7.92;100.00
25722;BME280;13578;53.450;15.496;2024-03-25T12:12:36;98574.22;;;8.06;100.00
25722;BME280;13578;53.450;15.496;2024-03-25T12:15:39;98582.84;;;8.02;100.00
25722;BME280;13578;53.450;15.496;2024-03-25T12:18:40;98573.88;;;8.09;100.00
25722;BME280;13578;53.450;15.496;2024-03-25T12:21:42;98573.03;;;8.09;100.00
25722;BME280;13578;53.450;15.496;2024-03-25T12:24:42;98577.13;;;8.23;100.00
25722;BME280;13578;53.450;15.496;2024-03-25T12:27:49;98580.78;;;8.14;100.00
25722;BME280;13578;53.450;15.496;2024-03-25T12:30:51;98586.84;;;8.35;100.00
25722;BME280;13578;53.450;15.496;2024-03-25T12:33:52;98592.41;;;8.43;100.00
25722;BME280;13578;53.450;15.496;2024-03-25T12:37:02;98584.94;;;8.36;100.00
25722;BME280;13578;53.450;15.496;2024-03-25T12:40:05;98582.16;;;8.46;100.00
25722;BME280;13578;53.450;15.496;2024-03-25T12:43:08;98586.94;;;8.43;100.00
25722;BME280;13578;53.450;15.496;2024-03-25T12:46:08;98595.66;;;8.29;100.00
25722;BME280;13578;53.450;15.496;2024-03-25T12:49:09;98583.47;;;8.41;100.00
25722;BME280;13578;53.450;15.496;2024-03-25T12:52:10;98581.75;;;8.40;100.00
25722;BME280;13578;53.450;15.496;2024-03-25T12:55:11;98582.97;;;8.56;100.00
25722;BME280;13578;53.450;15.496;2024-03-25T12:58:11;98575.88;;;8.63;100.00
25722;BME280;13578;53.450;15.496;2024-03-25T13:01:12;98589.56;;;8.63;100.00
25722;BME280;13578;53.450;15.496;2024-03-25T13:04:13;98585.34;;;8.69;100.00
25722;BME280;13578;53.450;15.496;2024-03-25T13:07:14;98592.38;;;8.89;100.00
25722;BME280;13578;53.450;15.496;2024-03-25T13:10:14;98588.38;;;8.84;100.00
25722;BME280;13578;53.450;15.496;2024-03-25T13:13:15;98591.91;;;8.94;100.00
25722;BME280;13578;53.450;15.496;2024-03-25T13:16:16;98578.72;;;9.16;100.00
25722;BME280;13578;53.450;15.496;2024-03-25T13:19:17;98588.03;;;9.23;100.00
25722;BME280;13578;53.450;15.496;2024-03-25T13:22:18;98585.84;;;9.27;100.00
25722;BME280;13578;53.450;15.496;2024-03-25T13:25:18;98585.41;;;8.95;100.00
25722;BME280;13578;53.450;15.496;2024-03-25T13:28:19;98591.81;;;8.86;100.00
25722;BME280;13578;53.450;15.496;2024-03-25T13:31:20;98589.25;;;8.66;100.00
25722;BME280;13578;53.450;15.496;2024-03-25T13:34:20;98594.56;;;8.68;100.00
25722;BME280;13578;53.450;15.496;2024-03-25T13:37:21;98595.88;;;8.82;100.00
25722;BME280;13578;53.450;15.496;2024-03-25T13:40:22;98603.84;;;8.57;100.00
25722;BME280;13578;53.450;15.496;2024-03-25T13:43:22;98603.84;;;8.29;100.00
25722;BME280;13578;53.450;15.496;2024-03-25T13:46:23;98606.81;;;8.36;100.00
25722;BME280;13578;53.450;15.496;2024-03-25T13:49:24;98608.44;;;8.29;100.00
25722;BME280;13578;53.450;15.496;2024-03-25T13:52:24;98611.34;;;8.27;100.00
25722;BME280;13578;53.450;15.496;2024-03-25T13:55:25;98616.72;;;8.19;100.00
25722;BME280;13578;53.450;15.496;2024-03-25T13:58:26;98620.56;;;7.98;100.00
25722;BME280;13578;53.450;15.496;2024-03-25T14:01:27;98617.09;;;7.96;100.00
25722;BME280;13578;53.450;15.496;2024-03-25T14:04:28;98618.59;;;7.81;100.00
25722;BME280;13578;53.450;15.496;2024-03-25T14:07:28;98617.47;;;7.73;100.00
25722;BME280;13578;53.450;15.496;2024-03-25T14:10:29;98611.94;;;7.55;100.00
25722;BME280;13578;53.450;15.496;2024-03-25T14:13:31;98603.97;;;7.34;100.00
25722;BME280;13578;53.450;15.496;2024-03-25T14:16:31;98615.59;;;7.26;100.00
25722;BME280;13578;53.450;15.496;2024-03-25T14:19:32;98629.84;;;7.01;100.00
25722;BME280;13578;53.450;15.496;2024-03-25T14:22:33;98639.72;;;6.82;100.00
25722;BME280;13578;53.450;15.496;2024-03-25T14:25:33;98647.22;;;6.90;100.00
25722;BME280;13578;53.450;15.496;2024-03-25T14:28:34;98652.78;;;6.88;100.00
25722;BME280;13578;53.450;15.496;2024-03-25T14:31:34;98652.63;;;6.80;100.00
25722;BME280;13578;53.450;15.496;2024-03-25T14:34:35;98656.81;;;6.74;100.00
25722;BME280;13578;53.450;15.496;2024-03-25T14:37:35;98648.63;;;6.74;100.00
25722;BME280;13578;53.450;15.496;2024-03-25T14:40:39;98660.13;;;6.78;100.00
25722;BME280;13578;53.450;15.496;2024-03-25T14:43:40;98653.63;;;6.69;100.00
25722;BME280;13578;53.450;15.496;2024-03-25T14:46:40;98650.91;;;6.59;100.00
25722;BME280;13578;53.450;15.496;2024-03-25T14:49:41;98653.22;;;6.64;100.00
25722;BME280;13578;53.450;15.496;2024-03-25T14:52:42;98657.16;;;6.30;100.00
25722;BME280;13578;53.450;15.496;2024-03-25T14:55:44;98655.16;;;6.32;100.00
25722;BME280;13578;53.450;15.496;2024-03-25T14:58:44;98662.31;;;6.24;100.00
25722;BME280;13578;53.450;15.496;2024-03-25T15:01:45;98657.09;;;6.11;100.00
25722;BME280;13578;53.450;15.496;2024-03-25T15:04:46;98660.22;;;6.06;100.00
25722;BME280;13578;53.450;15.496;2024-03-25T15:07:46;98661.06;;;6.07;100.00
25722;BME280;13578;53.450;15.496;2024-03-25T15:10:48;98654.38;;;5.89;100.00
25722;BME280;13578;53.450;15.496;2024-03-25T15:13:48;98663.84;;;5.85;100.00
25722;BME280;13578;53.450;15.496;2024-03-25T15:16:51;98678.34;;;5.65;100.00
25722;BME280;13578;53.450;15.496;2024-03-25T15:19:51;98683.19;;;5.40;100.00
25722;BME280;13578;53.450;15.496;2024-03-25T15:22:52;98690.34;;;5.20;100.00
25722;BME280;13578;53.450;15.496;2024-03-25T15:25:53;98687.72;;;4.97;100.00
25722;BME280;13578;53.450;15.496;2024-03-25T15:28:53;98679.25;;;4.90;100.00
25722;BME280;13578;53.450;15.496;2024-03-25T15:31:54;98661.66;;;4.95;100.00
25722;BME280;13578;53.450;15.496;2024-03-25T15:34:55;98663.69;;;5.14;100.00
25722;BME280;13578;53.450;15.496;2024-03-25T15:37:55;98668.91;;;4.84;100.00
25722;BME280;13578;53.450;15.496;2024-03-25T15:40:56;98672.97;;;5.11;100.00
25722;BME280;13578;53.450;15.496;2024-03-25T15:43:57;98661.28;;;4.67;100.00
25722;BME280;13578;53.450;15.496;2024-03-25T15:46:57;98662.19;;;4.56;100.00
25722;BME280;13578;53.450;15.496;2024-03-25T15:49:58;98669.59;;;4.54;100.00